<?xml version="1.0" encoding="UTF-8" standalone="no" ?>
<gpx xmlns="http://www.topografix.com/GPX/1/1" xmlns:xsi="http://www.w3.org/2001/XMLSchema-instance" xsi:schemaLocation="http://www.topografix.com/GPX/1/1 http://www.topografix.com/GPX/1/1/gpx.xsd" version="1.1" creator="VisuGPX - https://www.visugpx.com">
  <metadata>
    <name>tour france</name>
  </metadata>
  <trk>
    <name><![CDATA[SES_7]]></name>
    <extensions>
      <line xmlns="http://www.topografix.com/GPX/gpx_style/0/2">
        <color>000088</color>
        <width>4</width>
      </line>
    </extensions>
    <trkseg>
      <trkpt lat="44.14674" lon="1.11345">
        <ele>143.979</ele>
        <time>2016-09-26T18:00:46Z</time>
      </trkpt>
      <trkpt lat="44.14674" lon="1.11345">
        <ele>143.979</ele>
        <time>2016-09-26T18:00:46Z</time>
      </trkpt>
      <trkpt lat="44.1449" lon="1.11248">
        <ele>151.875</ele>
        <time>2016-09-26T18:01:06Z</time>
      </trkpt>
      <trkpt lat="44.14296" lon="1.11197">
        <ele>145.926</ele>
        <time>2016-09-26T18:01:26Z</time>
      </trkpt>
      <trkpt lat="44.14196" lon="1.1116">
        <ele>146.279</ele>
        <time>2016-09-26T18:01:46Z</time>
      </trkpt>
      <trkpt lat="44.14144" lon="1.11156">
        <ele>147.798</ele>
        <time>2016-09-26T18:02:06Z</time>
      </trkpt>
      <trkpt lat="44.1397" lon="1.11182">
        <ele>146.132</ele>
        <time>2016-09-26T18:02:26Z</time>
      </trkpt>
      <trkpt lat="44.13716" lon="1.11113">
        <ele>144.692</ele>
        <time>2016-09-26T18:02:46Z</time>
      </trkpt>
      <trkpt lat="44.13476" lon="1.11156">
        <ele>146.811</ele>
        <time>2016-09-26T18:03:06Z</time>
      </trkpt>
      <trkpt lat="44.13351" lon="1.11081">
        <ele>146.708</ele>
        <time>2016-09-26T18:03:26Z</time>
      </trkpt>
      <trkpt lat="44.1316" lon="1.11072">
        <ele>134.029</ele>
        <time>2016-09-26T18:03:46Z</time>
      </trkpt>
      <trkpt lat="44.13086" lon="1.11038">
        <ele>141.786</ele>
        <time>2016-09-26T18:04:06Z</time>
      </trkpt>
      <trkpt lat="44.13017" lon="1.10976">
        <ele>146.945</ele>
        <time>2016-09-26T18:04:26Z</time>
      </trkpt>
      <trkpt lat="44.1295" lon="1.11019">
        <ele>146.674</ele>
        <time>2016-09-26T18:04:46Z</time>
      </trkpt>
      <trkpt lat="44.12881" lon="1.11038">
        <ele>138.17</ele>
        <time>2016-09-26T18:05:06Z</time>
      </trkpt>
      <trkpt lat="44.12809" lon="1.11087">
        <ele>130.741</ele>
        <time>2016-09-26T18:05:26Z</time>
      </trkpt>
      <trkpt lat="44.12756" lon="1.11143">
        <ele>129.974</ele>
        <time>2016-09-26T18:05:46Z</time>
      </trkpt>
      <trkpt lat="44.12698" lon="1.11182">
        <ele>129.983</ele>
        <time>2016-09-26T18:06:06Z</time>
      </trkpt>
      <trkpt lat="44.12636" lon="1.11177">
        <ele>134.745</ele>
        <time>2016-09-26T18:06:26Z</time>
      </trkpt>
      <trkpt lat="44.12468" lon="1.11107">
        <ele>149.747</ele>
        <time>2016-09-26T18:06:46Z</time>
      </trkpt>
      <trkpt lat="44.1239" lon="1.11079">
        <ele>142.911</ele>
        <time>2016-09-26T18:07:06Z</time>
      </trkpt>
      <trkpt lat="44.12311" lon="1.11023">
        <ele>137.608</ele>
        <time>2016-09-26T18:07:26Z</time>
      </trkpt>
      <trkpt lat="44.12293" lon="1.1098">
        <ele>132.27</ele>
        <time>2016-09-26T18:07:46Z</time>
      </trkpt>
      <trkpt lat="44.12236" lon="1.10939">
        <ele>125.977</ele>
        <time>2016-09-26T18:08:06Z</time>
      </trkpt>
      <trkpt lat="44.12196" lon="1.10845">
        <ele>113.516</ele>
        <time>2016-09-26T18:08:26Z</time>
      </trkpt>
      <trkpt lat="44.12123" lon="1.1077">
        <ele>98.155</ele>
        <time>2016-09-26T18:08:46Z</time>
      </trkpt>
      <trkpt lat="44.12008" lon="1.10692">
        <ele>84.771</ele>
        <time>2016-09-26T18:09:06Z</time>
      </trkpt>
      <trkpt lat="44.11886" lon="1.1068">
        <ele>78.452</ele>
        <time>2016-09-26T18:09:26Z</time>
      </trkpt>
      <trkpt lat="44.11841" lon="1.10617">
        <ele>77.695</ele>
        <time>2016-09-26T18:09:46Z</time>
      </trkpt>
      <trkpt lat="44.11829" lon="1.10564">
        <ele>79.094</ele>
        <time>2016-09-26T18:10:06Z</time>
      </trkpt>
      <trkpt lat="44.11787" lon="1.10519">
        <ele>83.112</ele>
        <time>2016-09-26T18:10:26Z</time>
      </trkpt>
      <trkpt lat="44.11706" lon="1.10572">
        <ele>81.032</ele>
        <time>2016-09-26T18:10:46Z</time>
      </trkpt>
      <trkpt lat="44.11575" lon="1.10574">
        <ele>78.405</ele>
        <time>2016-09-26T18:11:06Z</time>
      </trkpt>
      <trkpt lat="44.11247" lon="1.10497">
        <ele>78.008</ele>
        <time>2016-09-26T18:11:26Z</time>
      </trkpt>
      <trkpt lat="44.11247" lon="1.10497">
        <ele>78.008</ele>
        <time>2016-09-26T18:11:26Z</time>
      </trkpt>
      <trkpt lat="44.11086" lon="1.10341">
        <ele>77.177</ele>
        <time>2016-09-26T18:11:46Z</time>
      </trkpt>
      <trkpt lat="44.1105" lon="1.10274">
        <ele>74.934</ele>
        <time>2016-09-26T18:12:06Z</time>
      </trkpt>
      <trkpt lat="44.11031" lon="1.10201">
        <ele>74.713</ele>
        <time>2016-09-26T18:12:26Z</time>
      </trkpt>
      <trkpt lat="44.10943" lon="1.10053">
        <ele>79.012</ele>
        <time>2016-09-26T18:12:46Z</time>
      </trkpt>
      <trkpt lat="44.10895" lon="1.10004">
        <ele>78.298</ele>
        <time>2016-09-26T18:13:06Z</time>
      </trkpt>
      <trkpt lat="44.10801" lon="1.09907">
        <ele>76.169</ele>
        <time>2016-09-26T18:13:26Z</time>
      </trkpt>
      <trkpt lat="44.10695" lon="1.09583">
        <ele>75.052</ele>
        <time>2016-09-26T18:13:46Z</time>
      </trkpt>
      <trkpt lat="44.10666" lon="1.09547">
        <ele>74.651</ele>
        <time>2016-09-26T18:14:06Z</time>
      </trkpt>
      <trkpt lat="44.10672" lon="1.09497">
        <ele>76.584</ele>
        <time>2016-09-26T18:14:26Z</time>
      </trkpt>
      <trkpt lat="44.10666" lon="1.09172">
        <ele>79.107</ele>
        <time>2019-03-30T16:36:28Z</time>
      </trkpt>
      <trkpt lat="44.1058" lon="1.09211">
        <ele>75.017</ele>
        <time>2019-03-30T16:36:48Z</time>
      </trkpt>
      <trkpt lat="44.10513" lon="1.08984">
        <ele>73.208</ele>
        <time>2016-09-26T18:15:26Z</time>
      </trkpt>
      <trkpt lat="44.10413" lon="1.08796">
        <ele>75.294</ele>
        <time>2016-09-26T18:15:46Z</time>
      </trkpt>
      <trkpt lat="44.10401" lon="1.08699">
        <ele>76.941</ele>
        <time>2016-09-26T18:16:06Z</time>
      </trkpt>
      <trkpt lat="44.10412" lon="1.08577">
        <ele>76.79</ele>
        <time>2016-09-26T18:16:26Z</time>
      </trkpt>
      <trkpt lat="44.10387" lon="1.08489">
        <ele>78.369</ele>
        <time>2021-01-03T09:22:20Z</time>
      </trkpt>
      <trkpt lat="44.10274" lon="1.08559">
        <ele>77.845</ele>
        <time>2019-03-30T16:39:28Z</time>
      </trkpt>
      <trkpt lat="44.10197" lon="1.08677">
        <ele>74.066</ele>
        <time>2019-03-30T16:39:48Z</time>
      </trkpt>
      <trkpt lat="44.10163" lon="1.08771">
        <ele>72.549</ele>
        <time>2019-03-30T16:40:08Z</time>
      </trkpt>
      <trkpt lat="44.1001" lon="1.0868">
        <ele>69.878</ele>
        <time>2021-01-03T09:23:40Z</time>
      </trkpt>
      <trkpt lat="44.09955" lon="1.086">
        <ele>66.886</ele>
        <time>2021-01-03T09:24:00Z</time>
      </trkpt>
      <trkpt lat="44.09955" lon="1.08559">
        <ele>67.16</ele>
        <time>2021-01-03T09:24:20Z</time>
      </trkpt>
      <trkpt lat="44.09974" lon="1.08545">
        <ele>69.426</ele>
        <time>2021-01-03T09:24:40Z</time>
      </trkpt>
      <trkpt lat="44.09976" lon="1.08502">
        <ele>66.2</ele>
      </trkpt>
      <trkpt lat="44.09961" lon="1.08405">
        <ele>68.608</ele>
        <time>2021-01-03T09:25:00Z</time>
      </trkpt>
      <trkpt lat="44.09959" lon="1.08269">
        <ele>67.674</ele>
        <time>2019-03-30T16:41:28Z</time>
      </trkpt>
      <trkpt lat="44.09977" lon="1.08153">
        <ele>71.381</ele>
        <time>2019-03-30T16:41:48Z</time>
      </trkpt>
      <trkpt lat="44.09993" lon="1.07804">
        <ele>68.33</ele>
        <time>2019-03-30T16:42:08Z</time>
      </trkpt>
      <trkpt lat="44.10054" lon="1.07812">
        <ele>69.089</ele>
        <time>2019-03-30T16:42:28Z</time>
      </trkpt>
      <trkpt lat="44.10084" lon="1.07792">
        <ele>70.025</ele>
        <time>2019-03-30T16:42:48Z</time>
      </trkpt>
      <trkpt lat="44.10083" lon="1.07397">
        <ele>70.096</ele>
        <time>2016-09-26T18:20:26Z</time>
      </trkpt>
      <trkpt lat="44.10051" lon="1.07195">
        <ele>73.869</ele>
        <time>2016-09-26T18:20:46Z</time>
      </trkpt>
      <trkpt lat="44.09942" lon="1.06877">
        <ele>65.018</ele>
        <time>2016-09-26T18:21:06Z</time>
      </trkpt>
      <trkpt lat="44.09845" lon="1.06676">
        <ele>71.013</ele>
        <time>2016-09-26T18:21:26Z</time>
      </trkpt>
      <trkpt lat="44.0966" lon="1.06407">
        <ele>67.543</ele>
        <time>2016-09-26T18:21:46Z</time>
      </trkpt>
      <trkpt lat="44.09596" lon="1.06279">
        <ele>68.907</ele>
        <time>2016-09-26T18:22:06Z</time>
      </trkpt>
      <trkpt lat="44.09556" lon="1.06124">
        <ele>68.008</ele>
        <time>2016-09-26T18:22:26Z</time>
      </trkpt>
      <trkpt lat="44.09521" lon="1.05729">
        <ele>72.027</ele>
        <time>2016-09-26T18:22:46Z</time>
      </trkpt>
      <trkpt lat="44.09487" lon="1.05543">
        <ele>71.094</ele>
        <time>2016-09-26T18:23:06Z</time>
      </trkpt>
      <trkpt lat="44.09405" lon="1.05296">
        <ele>69.993</ele>
        <time>2016-09-26T18:23:26Z</time>
      </trkpt>
      <trkpt lat="44.09298" lon="1.05108">
        <ele>68.792</ele>
        <time>2019-03-30T16:46:28Z</time>
      </trkpt>
      <trkpt lat="44.09371" lon="1.05045">
        <ele>79.748</ele>
        <time>2019-03-30T16:46:48Z</time>
      </trkpt>
      <trkpt lat="44.09481" lon="1.05261">
        <ele>74.979</ele>
        <time>2019-03-30T16:47:08Z</time>
      </trkpt>
      <trkpt lat="44.09521" lon="1.05294">
        <ele>72.982</ele>
        <time>2019-03-30T16:47:28Z</time>
      </trkpt>
      <trkpt lat="44.09535" lon="1.05315">
        <ele>73.231</ele>
        <time>2021-01-03T09:31:40Z</time>
      </trkpt>
      <trkpt lat="44.09547" lon="1.05253">
        <ele>77.676</ele>
        <time>2021-01-03T09:32:00Z</time>
      </trkpt>
      <trkpt lat="44.09554" lon="1.0517">
        <ele>78.49</ele>
        <time>2021-01-03T09:32:20Z</time>
      </trkpt>
      <trkpt lat="44.09568" lon="1.05109">
        <ele>81.119</ele>
        <time>2021-01-03T09:32:40Z</time>
      </trkpt>
      <trkpt lat="44.09593" lon="1.05026">
        <ele>78.608</ele>
        <time>2021-01-03T09:33:00Z</time>
      </trkpt>
      <trkpt lat="44.09595" lon="1.05">
        <ele>75.8</ele>
      </trkpt>
      <trkpt lat="44.09582" lon="1.04961">
        <ele>75.2</ele>
      </trkpt>
      <trkpt lat="44.09596" lon="1.04903">
        <ele>77.8</ele>
      </trkpt>
      <trkpt lat="44.09619" lon="1.04846">
        <ele>78.2</ele>
        <time>2021-01-03T09:33:20Z</time>
      </trkpt>
      <trkpt lat="44.09683" lon="1.04801">
        <ele>86.39</ele>
        <time>2021-01-03T09:33:40Z</time>
      </trkpt>
      <trkpt lat="44.09753" lon="1.04612">
        <ele>84.139</ele>
        <time>2021-01-03T09:34:00Z</time>
      </trkpt>
      <trkpt lat="44.09816" lon="1.04416">
        <ele>86.628</ele>
        <time>2021-01-03T09:34:20Z</time>
      </trkpt>
      <trkpt lat="44.09859" lon="1.04363">
        <ele>87.284</ele>
        <time>2021-01-03T09:34:40Z</time>
      </trkpt>
      <trkpt lat="44.09905" lon="1.04318">
        <ele>88.635</ele>
        <time>2021-01-03T09:35:00Z</time>
      </trkpt>
      <trkpt lat="44.09926" lon="1.04259">
        <ele>90.878</ele>
        <time>2021-01-03T09:35:20Z</time>
      </trkpt>
      <trkpt lat="44.09944" lon="1.04179">
        <ele>92.297</ele>
        <time>2021-01-03T09:35:40Z</time>
      </trkpt>
      <trkpt lat="44.09967" lon="1.04149">
        <ele>91.462</ele>
        <time>2021-01-03T09:36:00Z</time>
      </trkpt>
      <trkpt lat="44.09954" lon="1.04129">
        <ele>93.583</ele>
        <time>2021-01-03T09:36:20Z</time>
      </trkpt>
      <trkpt lat="44.09909" lon="1.04159">
        <ele>102.211</ele>
        <time>2021-01-03T09:36:40Z</time>
      </trkpt>
      <trkpt lat="44.09882" lon="1.04101">
        <ele>109.308</ele>
        <time>2021-01-03T09:37:00Z</time>
      </trkpt>
      <trkpt lat="44.09858" lon="1.0398">
        <ele>123.512</ele>
        <time>2021-01-03T09:37:20Z</time>
      </trkpt>
      <trkpt lat="44.09881" lon="1.03936">
        <ele>128.929</ele>
        <time>2021-01-03T09:37:40Z</time>
      </trkpt>
      <trkpt lat="44.09861" lon="1.03791">
        <ele>142.558</ele>
        <time>2021-01-03T09:38:00Z</time>
      </trkpt>
      <trkpt lat="44.09816" lon="1.03695">
        <ele>152.357</ele>
        <time>2021-01-03T09:38:20Z</time>
      </trkpt>
      <trkpt lat="44.0971" lon="1.03654">
        <ele>163.773</ele>
        <time>2021-01-03T09:38:40Z</time>
      </trkpt>
      <trkpt lat="44.09616" lon="1.03585">
        <ele>173.134</ele>
        <time>2021-01-03T09:39:00Z</time>
      </trkpt>
      <trkpt lat="44.09636" lon="1.03504">
        <ele>173.377</ele>
        <time>2019-03-30T16:55:28Z</time>
      </trkpt>
      <trkpt lat="44.09676" lon="1.03239">
        <ele>170.096</ele>
        <time>2019-03-30T16:55:48Z</time>
      </trkpt>
      <trkpt lat="44.09737" lon="1.03254">
        <ele>170.681</ele>
        <time>2021-01-03T09:40:00Z</time>
      </trkpt>
      <trkpt lat="44.09769" lon="1.03246">
        <ele>165.661</ele>
        <time>2019-03-30T16:56:08Z</time>
      </trkpt>
      <trkpt lat="44.09785" lon="1.02971">
        <ele>128.917</ele>
        <time>2019-03-30T16:56:28Z</time>
      </trkpt>
      <trkpt lat="44.09774" lon="1.02917">
        <ele>124.008</ele>
        <time>2019-03-30T16:56:48Z</time>
      </trkpt>
      <trkpt lat="44.09733" lon="1.02865">
        <ele>124.614</ele>
        <time>2019-03-30T16:57:08Z</time>
      </trkpt>
      <trkpt lat="44.09712" lon="1.02788">
        <ele>129.691</ele>
        <time>2019-03-30T16:57:28Z</time>
      </trkpt>
      <trkpt lat="44.09674" lon="1.02762">
        <ele>136.91</ele>
        <time>2019-03-30T16:57:48Z</time>
      </trkpt>
      <trkpt lat="44.09677" lon="1.02704">
        <ele>127.729</ele>
        <time>2019-03-30T16:58:08Z</time>
      </trkpt>
      <trkpt lat="44.09753" lon="1.02734">
        <ele>115.695</ele>
        <time>2019-03-30T16:58:28Z</time>
      </trkpt>
      <trkpt lat="44.09773" lon="1.0271">
        <ele>110.436</ele>
        <time>2019-03-30T16:58:48Z</time>
      </trkpt>
      <trkpt lat="44.0976" lon="1.02537">
        <ele>100.679</ele>
        <time>2019-03-30T16:59:08Z</time>
      </trkpt>
      <trkpt lat="44.09789" lon="1.02514">
        <ele>98.068</ele>
        <time>2019-03-30T16:59:28Z</time>
      </trkpt>
      <trkpt lat="44.09804" lon="1.0238">
        <ele>113.524</ele>
        <time>2019-03-30T16:59:48Z</time>
      </trkpt>
      <trkpt lat="44.09788" lon="1.02272">
        <ele>132.904</ele>
        <time>2019-03-30T17:00:08Z</time>
      </trkpt>
      <trkpt lat="44.09794" lon="1.0215">
        <ele>153.214</ele>
        <time>2019-03-30T17:00:28Z</time>
      </trkpt>
      <trkpt lat="44.09865" lon="1.01955">
        <ele>163.608</ele>
        <time>2019-03-30T17:00:48Z</time>
      </trkpt>
      <trkpt lat="44.09806" lon="1.01931">
        <ele>161.598</ele>
        <time>2019-03-30T17:01:08Z</time>
      </trkpt>
      <trkpt lat="44.09729" lon="1.01835">
        <ele>161.155</ele>
        <time>2019-03-30T17:01:28Z</time>
      </trkpt>
      <trkpt lat="44.09712" lon="1.01775">
        <ele>163.414</ele>
        <time>2019-03-30T17:01:48Z</time>
      </trkpt>
      <trkpt lat="44.097" lon="1.01676">
        <ele>172.073</ele>
        <time>2019-03-30T17:02:08Z</time>
      </trkpt>
      <trkpt lat="44.09647" lon="1.0153">
        <ele>172.359</ele>
        <time>2019-03-30T17:02:28Z</time>
      </trkpt>
      <trkpt lat="44.0961" lon="1.01451">
        <ele>173.04</ele>
        <time>2019-03-30T17:02:48Z</time>
      </trkpt>
      <trkpt lat="44.0963" lon="1.01322">
        <ele>175.833</ele>
        <time>2019-03-30T17:03:08Z</time>
      </trkpt>
      <trkpt lat="44.0965" lon="1.01341">
        <ele>174.532</ele>
        <time>2019-03-30T17:03:28Z</time>
      </trkpt>
      <trkpt lat="44.0968" lon="1.0134">
        <ele>171.5</ele>
        <time>2019-03-30T17:03:48Z</time>
      </trkpt>
      <trkpt lat="44.09713" lon="1.01319">
        <ele>168.2</ele>
      </trkpt>
      <trkpt lat="44.09743" lon="1.01261">
        <ele>165.281</ele>
        <time>2019-03-30T17:04:08Z</time>
      </trkpt>
      <trkpt lat="44.09778" lon="1.01211">
        <ele>160.319</ele>
        <time>2019-03-30T17:04:28Z</time>
      </trkpt>
      <trkpt lat="44.09844" lon="1.01097">
        <ele>142.708</ele>
        <time>2019-03-30T17:04:48Z</time>
      </trkpt>
      <trkpt lat="44.099" lon="1.01035">
        <ele>134.825</ele>
        <time>2019-03-30T17:05:08Z</time>
      </trkpt>
      <trkpt lat="44.09964" lon="1.00874">
        <ele>115.872</ele>
        <time>2019-03-30T17:05:28Z</time>
      </trkpt>
      <trkpt lat="44.10098" lon="1.00717">
        <ele>96.111</ele>
        <time>2019-03-30T17:05:48Z</time>
      </trkpt>
      <trkpt lat="44.0998" lon="1.00526">
        <ele>93.67</ele>
        <time>2019-03-30T17:06:08Z</time>
      </trkpt>
      <trkpt lat="44.09918" lon="1.00461">
        <ele>90.566</ele>
        <time>2019-03-30T17:06:28Z</time>
      </trkpt>
      <trkpt lat="44.09869" lon="1.0035">
        <ele>90.557</ele>
        <time>2019-03-30T17:06:48Z</time>
      </trkpt>
      <trkpt lat="44.09786" lon="1.00254">
        <ele>93.85</ele>
        <time>2019-03-30T17:07:08Z</time>
      </trkpt>
      <trkpt lat="44.09702" lon="1.00191">
        <ele>87.229</ele>
        <time>2019-03-30T17:07:28Z</time>
      </trkpt>
      <trkpt lat="44.09686" lon="1.00123">
        <ele>85.582</ele>
        <time>2019-03-30T17:07:48Z</time>
      </trkpt>
      <trkpt lat="44.09458" lon="0.9982">
        <ele>79.043</ele>
        <time>2019-03-30T17:08:08Z</time>
      </trkpt>
      <trkpt lat="44.09473" lon="0.9975">
        <ele>79.117</ele>
        <time>2019-03-30T17:08:28Z</time>
      </trkpt>
      <trkpt lat="44.09541" lon="0.99644">
        <ele>89.708</ele>
        <time>2019-03-30T17:08:48Z</time>
      </trkpt>
      <trkpt lat="44.09614" lon="0.99485">
        <ele>96.054</ele>
        <time>2019-03-30T17:09:08Z</time>
      </trkpt>
      <trkpt lat="44.09641" lon="0.99361">
        <ele>102.4</ele>
      </trkpt>
      <trkpt lat="44.09684" lon="0.99226">
        <ele>134.481</ele>
        <time>2019-03-30T17:09:28Z</time>
      </trkpt>
      <trkpt lat="44.09714" lon="0.99172">
        <ele>144.26</ele>
        <time>2019-03-30T17:09:48Z</time>
      </trkpt>
      <trkpt lat="44.09761" lon="0.99013">
        <ele>168.039</ele>
        <time>2019-03-30T17:10:08Z</time>
      </trkpt>
      <trkpt lat="44.09798" lon="0.98989">
        <ele>174.545</ele>
        <time>2019-03-30T17:10:28Z</time>
      </trkpt>
      <trkpt lat="44.09835" lon="0.98936">
        <ele>176.916</ele>
        <time>2019-03-30T17:10:48Z</time>
      </trkpt>
      <trkpt lat="44.09805" lon="0.98879">
        <ele>182.179</ele>
        <time>2019-03-30T17:11:08Z</time>
      </trkpt>
      <trkpt lat="44.09729" lon="0.98832">
        <ele>181.198</ele>
        <time>2019-03-30T17:11:28Z</time>
      </trkpt>
      <trkpt lat="44.09607" lon="0.98851">
        <ele>181.153</ele>
        <time>2019-03-30T17:11:48Z</time>
      </trkpt>
      <trkpt lat="44.09549" lon="0.98837">
        <ele>176.9</ele>
      </trkpt>
      <trkpt lat="44.09507" lon="0.98793">
        <ele>171.904</ele>
        <time>2019-03-30T17:12:08Z</time>
      </trkpt>
      <trkpt lat="44.09329" lon="0.98717">
        <ele>162.614</ele>
        <time>2019-03-30T17:12:28Z</time>
      </trkpt>
      <trkpt lat="44.09219" lon="0.98539">
        <ele>161.008</ele>
        <time>2019-03-30T17:12:48Z</time>
      </trkpt>
      <trkpt lat="44.09271" lon="0.98283">
        <ele>141.341</ele>
        <time>2019-03-30T17:13:08Z</time>
      </trkpt>
      <trkpt lat="44.09259" lon="0.98192">
        <ele>133.678</ele>
        <time>2019-03-30T17:13:28Z</time>
      </trkpt>
      <trkpt lat="44.09207" lon="0.9807">
        <ele>121.327</ele>
        <time>2019-03-30T17:13:48Z</time>
      </trkpt>
      <trkpt lat="44.09172" lon="0.98025">
        <ele>116.536</ele>
        <time>2019-03-30T17:14:08Z</time>
      </trkpt>
      <trkpt lat="44.09139" lon="0.97915">
        <ele>105.912</ele>
        <time>2019-03-30T17:14:28Z</time>
      </trkpt>
      <trkpt lat="44.09088" lon="0.97843">
        <ele>102.943</ele>
        <time>2019-03-30T17:14:48Z</time>
      </trkpt>
      <trkpt lat="44.09019" lon="0.97784">
        <ele>92.976</ele>
        <time>2019-03-30T17:15:08Z</time>
      </trkpt>
      <trkpt lat="44.09029" lon="0.97713">
        <ele>92.285</ele>
        <time>2019-03-30T17:15:28Z</time>
      </trkpt>
      <trkpt lat="44.08989" lon="0.97601">
        <ele>92.011</ele>
        <time>2019-03-30T17:15:48Z</time>
      </trkpt>
      <trkpt lat="44.08993" lon="0.97561">
        <ele>91.921</ele>
        <time>2019-03-30T17:16:08Z</time>
      </trkpt>
      <trkpt lat="44.0903" lon="0.97545">
        <ele>96.503</ele>
        <time>2019-03-30T17:16:28Z</time>
      </trkpt>
      <trkpt lat="44.09139" lon="0.97233">
        <ele>78.408</ele>
        <time>2019-03-30T17:16:48Z</time>
      </trkpt>
      <trkpt lat="44.09054" lon="0.97268">
        <ele>82.297</ele>
        <time>2019-03-30T17:17:08Z</time>
      </trkpt>
      <trkpt lat="44.09" lon="0.9727">
        <ele>77.714</ele>
        <time>2019-03-30T17:17:28Z</time>
      </trkpt>
      <trkpt lat="44.0902" lon="0.97195">
        <ele>74.763</ele>
        <time>2019-03-30T17:17:48Z</time>
      </trkpt>
      <trkpt lat="44.08983" lon="0.97157">
        <ele>68.012</ele>
        <time>2019-03-30T17:18:08Z</time>
      </trkpt>
      <trkpt lat="44.08964" lon="0.97094">
        <ele>66.618</ele>
        <time>2019-03-30T17:18:28Z</time>
      </trkpt>
      <trkpt lat="44.08883" lon="0.9697">
        <ele>65.149</ele>
        <time>2019-03-30T17:18:48Z</time>
      </trkpt>
      <trkpt lat="44.08815" lon="0.96928">
        <ele>67.6</ele>
        <time>2019-03-30T17:19:08Z</time>
      </trkpt>
      <trkpt lat="44.08838" lon="0.96848">
        <ele>76.271</ele>
        <time>2016-09-26T18:33:26Z</time>
      </trkpt>
      <trkpt lat="44.09239" lon="0.95447">
        <ele>70.334</ele>
        <time>2016-09-26T18:33:46Z</time>
      </trkpt>
      <trkpt lat="44.09393" lon="0.94865">
        <ele>77.21</ele>
        <time>2016-09-26T18:34:26Z</time>
      </trkpt>
      <trkpt lat="44.09412" lon="0.94753">
        <ele>64.2</ele>
      </trkpt>
      <trkpt lat="44.09685" lon="0.9343">
        <ele>70.108</ele>
        <time>2021-01-03T10:05:00Z</time>
      </trkpt>
      <trkpt lat="44.09824" lon="0.9349">
        <ele>65.229</ele>
        <time>2021-01-03T10:05:20Z</time>
      </trkpt>
      <trkpt lat="44.09942" lon="0.93482">
        <ele>67.836</ele>
        <time>2021-01-03T10:05:40Z</time>
      </trkpt>
      <trkpt lat="44.09938" lon="0.93389">
        <ele>69.295</ele>
        <time>2021-01-03T10:06:00Z</time>
      </trkpt>
      <trkpt lat="44.0995" lon="0.93359">
        <ele>71.664</ele>
        <time>2021-01-03T10:06:20Z</time>
      </trkpt>
      <trkpt lat="44.09991" lon="0.93326">
        <ele>73.34</ele>
        <time>2021-01-03T10:06:40Z</time>
      </trkpt>
      <trkpt lat="44.10029" lon="0.93267">
        <ele>72.091</ele>
        <time>2021-01-03T10:07:00Z</time>
      </trkpt>
      <trkpt lat="44.09995" lon="0.93218">
        <ele>73.134</ele>
        <time>2021-01-03T10:07:20Z</time>
      </trkpt>
      <trkpt lat="44.09968" lon="0.93217">
        <ele>72.973</ele>
        <time>2021-01-03T10:07:40Z</time>
      </trkpt>
      <trkpt lat="44.09956" lon="0.93157">
        <ele>73.446</ele>
        <time>2021-01-03T10:08:00Z</time>
      </trkpt>
      <trkpt lat="44.09974" lon="0.93037">
        <ele>70.488</ele>
        <time>2021-01-03T10:08:20Z</time>
      </trkpt>
      <trkpt lat="44.09993" lon="0.92858">
        <ele>71.316</ele>
        <time>2021-01-03T10:08:40Z</time>
      </trkpt>
      <trkpt lat="44.09533" lon="0.9267">
        <ele>61.308</ele>
        <time>2016-09-26T18:35:46Z</time>
      </trkpt>
      <trkpt lat="44.09507" lon="0.92692">
        <ele>60.47</ele>
        <time>2016-09-26T18:36:06Z</time>
      </trkpt>
      <trkpt lat="44.09472" lon="0.92649">
        <ele>59.087</ele>
        <time>2016-09-26T18:36:26Z</time>
      </trkpt>
      <trkpt lat="44.09402" lon="0.92617">
        <ele>59.516</ele>
        <time>2016-09-26T18:36:46Z</time>
      </trkpt>
      <trkpt lat="44.09308" lon="0.9252">
        <ele>61.035</ele>
        <time>2016-09-26T18:37:06Z</time>
      </trkpt>
      <trkpt lat="44.09234" lon="0.92361">
        <ele>60.441</ele>
        <time>2016-09-26T18:37:26Z</time>
      </trkpt>
      <trkpt lat="44.0917" lon="0.92241">
        <ele>58.982</ele>
        <time>2016-09-26T18:37:46Z</time>
      </trkpt>
      <trkpt lat="44.08995" lon="0.91992">
        <ele>59.945</ele>
        <time>2016-09-26T18:38:06Z</time>
      </trkpt>
      <trkpt lat="44.08883" lon="0.9187">
        <ele>59.834</ele>
        <time>2016-09-26T18:38:26Z</time>
      </trkpt>
      <trkpt lat="44.08794" lon="0.91823">
        <ele>58.614</ele>
        <time>2016-09-26T18:38:46Z</time>
      </trkpt>
      <trkpt lat="44.08712" lon="0.91741">
        <ele>60.254</ele>
        <time>2016-09-26T18:39:06Z</time>
      </trkpt>
      <trkpt lat="44.08638" lon="0.91706">
        <ele>58.409</ele>
        <time>2019-03-30T17:24:48Z</time>
      </trkpt>
      <trkpt lat="44.08532" lon="0.91564">
        <ele>59.108</ele>
        <time>2019-03-30T17:25:08Z</time>
      </trkpt>
      <trkpt lat="44.08432" lon="0.91476">
        <ele>60.087</ele>
        <time>2019-03-30T17:25:28Z</time>
      </trkpt>
      <trkpt lat="44.08288" lon="0.91292">
        <ele>57.484</ele>
        <time>2019-03-30T17:25:48Z</time>
      </trkpt>
      <trkpt lat="44.08218" lon="0.91225">
        <ele>55.393</ele>
        <time>2019-03-30T17:26:08Z</time>
      </trkpt>
      <trkpt lat="44.0808" lon="0.91023">
        <ele>58.932</ele>
        <time>2019-03-30T17:26:28Z</time>
      </trkpt>
      <trkpt lat="44.07876" lon="0.91024">
        <ele>60.938</ele>
        <time>2016-09-26T18:42:06Z</time>
      </trkpt>
      <trkpt lat="44.07844" lon="0.91001">
        <ele>59.459</ele>
        <time>2016-09-26T18:42:26Z</time>
      </trkpt>
      <trkpt lat="44.07858" lon="0.90842">
        <ele>58.182</ele>
        <time>2016-09-26T18:42:46Z</time>
      </trkpt>
      <trkpt lat="44.07846" lon="0.90765">
        <ele>60.011</ele>
        <time>2016-09-26T18:43:06Z</time>
      </trkpt>
      <trkpt lat="44.07819" lon="0.90707">
        <ele>60.091</ele>
        <time>2016-09-26T18:43:26Z</time>
      </trkpt>
      <trkpt lat="44.07748" lon="0.90687">
        <ele>59.081</ele>
        <time>2016-09-26T18:43:46Z</time>
      </trkpt>
      <trkpt lat="44.07701" lon="0.90645">
        <ele>60.619</ele>
        <time>2016-09-26T18:44:06Z</time>
      </trkpt>
      <trkpt lat="44.07707" lon="0.9046">
        <ele>62.008</ele>
        <time>2016-09-26T18:44:26Z</time>
      </trkpt>
      <trkpt lat="44.07695" lon="0.90286">
        <ele>64.355</ele>
        <time>2016-09-26T18:44:46Z</time>
      </trkpt>
      <trkpt lat="44.0767" lon="0.90155">
        <ele>61.742</ele>
        <time>2016-09-26T18:45:06Z</time>
      </trkpt>
      <trkpt lat="44.07733" lon="0.90085">
        <ele>61.071</ele>
        <time>2016-09-26T18:45:26Z</time>
      </trkpt>
      <trkpt lat="44.07389" lon="0.89587">
        <ele>59.11</ele>
        <time>2016-09-26T18:45:46Z</time>
      </trkpt>
      <trkpt lat="44.07375" lon="0.89653">
        <ele>58.516</ele>
        <time>2016-09-26T18:46:06Z</time>
      </trkpt>
      <trkpt lat="44.07305" lon="0.89711">
        <ele>66.447</ele>
        <time>2016-09-26T18:46:26Z</time>
      </trkpt>
      <trkpt lat="44.07244" lon="0.89823">
        <ele>66.54</ele>
        <time>2016-09-26T18:46:46Z</time>
      </trkpt>
      <trkpt lat="44.07224" lon="0.89833">
        <ele>69.619</ele>
        <time>2016-09-26T18:47:06Z</time>
      </trkpt>
      <trkpt lat="44.07194" lon="0.89885">
        <ele>77.383</ele>
        <time>2016-09-26T18:47:26Z</time>
      </trkpt>
      <trkpt lat="44.07166" lon="0.89833">
        <ele>81.2</ele>
        <time>2016-09-26T18:47:46Z</time>
      </trkpt>
      <trkpt lat="44.07113" lon="0.89827">
        <ele>93.9</ele>
      </trkpt>
      <trkpt lat="44.07018" lon="0.89778">
        <ele>109.417</ele>
        <time>2016-09-26T18:48:06Z</time>
      </trkpt>
      <trkpt lat="44.06955" lon="0.89932">
        <ele>118.608</ele>
        <time>2016-09-26T18:48:26Z</time>
      </trkpt>
      <trkpt lat="44.06744" lon="0.89912">
        <ele>127.564</ele>
        <time>2019-03-30T17:33:28Z</time>
      </trkpt>
      <trkpt lat="44.06733" lon="0.89936">
        <ele>128.661</ele>
        <time>2019-03-30T17:33:48Z</time>
      </trkpt>
      <trkpt lat="44.06642" lon="0.89914">
        <ele>138.81</ele>
        <time>2019-03-30T17:34:08Z</time>
      </trkpt>
      <trkpt lat="44.06568" lon="0.89818">
        <ele>145.639</ele>
        <time>2019-03-30T17:34:28Z</time>
      </trkpt>
      <trkpt lat="44.06534" lon="0.89612">
        <ele>148.685</ele>
        <time>2016-09-26T18:50:46Z</time>
      </trkpt>
      <trkpt lat="44.06528" lon="0.89618">
        <ele>150</ele>
      </trkpt>
      <trkpt lat="44.06464" lon="0.89604">
        <ele>146.096</ele>
        <time>2016-09-26T18:51:06Z</time>
      </trkpt>
      <trkpt lat="44.06374" lon="0.89502">
        <ele>141.929</ele>
        <time>2019-03-30T17:35:28Z</time>
      </trkpt>
      <trkpt lat="44.06349" lon="0.89384">
        <ele>132.678</ele>
        <time>2019-03-30T17:35:48Z</time>
      </trkpt>
      <trkpt lat="44.06312" lon="0.89369">
        <ele>126.6</ele>
        <time>2019-03-30T17:36:08Z</time>
      </trkpt>
      <trkpt lat="44.06249" lon="0.89434">
        <ele>122.49</ele>
        <time>2019-03-30T17:36:28Z</time>
      </trkpt>
      <trkpt lat="44.06161" lon="0.89471">
        <ele>105.119</ele>
        <time>2019-03-30T17:36:48Z</time>
      </trkpt>
      <trkpt lat="44.05991" lon="0.89337">
        <ele>90.7</ele>
        <time>2019-03-30T17:37:08Z</time>
      </trkpt>
      <trkpt lat="44.05939" lon="0.89187">
        <ele>95.423</ele>
        <time>2019-03-30T17:37:28Z</time>
      </trkpt>
      <trkpt lat="44.05887" lon="0.8924">
        <ele>102.54</ele>
        <time>2019-03-30T17:37:48Z</time>
      </trkpt>
      <trkpt lat="44.05831" lon="0.89346">
        <ele>105.629</ele>
        <time>2019-03-30T17:38:08Z</time>
      </trkpt>
      <trkpt lat="44.05767" lon="0.89389">
        <ele>113.718</ele>
        <time>2016-09-26T18:54:06Z</time>
      </trkpt>
      <trkpt lat="44.05617" lon="0.89345">
        <ele>125.114</ele>
        <time>2019-03-30T17:38:48Z</time>
      </trkpt>
      <trkpt lat="44.05361" lon="0.88961">
        <ele>139.885</ele>
        <time>2019-03-30T17:39:08Z</time>
      </trkpt>
      <trkpt lat="44.04637" lon="0.88844">
        <ele>157.4</ele>
        <time>2019-03-30T17:39:28Z</time>
      </trkpt>
      <trkpt lat="44.04595" lon="0.88797">
        <ele>155.7</ele>
      </trkpt>
      <trkpt lat="44.04543" lon="0.88753">
        <ele>155.867</ele>
        <time>2019-03-30T17:39:48Z</time>
      </trkpt>
      <trkpt lat="44.0444" lon="0.88813">
        <ele>155.896</ele>
        <time>2019-03-30T17:40:08Z</time>
      </trkpt>
      <trkpt lat="44.04054" lon="0.88745">
        <ele>161.9</ele>
        <time>2019-03-30T17:40:28Z</time>
      </trkpt>
      <trkpt lat="44.03967" lon="0.88677">
        <ele>160.324</ele>
        <time>2016-09-26T18:56:46Z</time>
      </trkpt>
      <trkpt lat="44.03812" lon="0.88439">
        <ele>159.4</ele>
        <time>2019-03-30T17:41:08Z</time>
      </trkpt>
      <trkpt lat="44.03837" lon="0.88356">
        <ele>162.935</ele>
        <time>2019-03-30T17:41:28Z</time>
      </trkpt>
      <trkpt lat="44.03817" lon="0.8809">
        <ele>159.822</ele>
        <time>2019-03-30T17:41:48Z</time>
      </trkpt>
      <trkpt lat="44.0371" lon="0.87601">
        <ele>163.291</ele>
        <time>2019-03-30T17:42:08Z</time>
      </trkpt>
      <trkpt lat="44.03652" lon="0.87447">
        <ele>164.94</ele>
        <time>2019-03-30T17:42:28Z</time>
      </trkpt>
      <trkpt lat="44.03659" lon="0.87107">
        <ele>168.576</ele>
        <time>2019-03-30T17:42:48Z</time>
      </trkpt>
      <trkpt lat="44.03693" lon="0.86805">
        <ele>163.037</ele>
        <time>2019-03-30T17:43:08Z</time>
      </trkpt>
      <trkpt lat="44.03704" lon="0.86602">
        <ele>165.88</ele>
        <time>2016-09-26T19:00:06Z</time>
      </trkpt>
      <trkpt lat="44.03723" lon="0.86423">
        <ele>149.149</ele>
        <time>2019-03-30T17:43:48Z</time>
      </trkpt>
      <trkpt lat="44.0377" lon="0.86311">
        <ele>131.895</ele>
        <time>2019-03-30T17:44:08Z</time>
      </trkpt>
      <trkpt lat="44.03777" lon="0.8618">
        <ele>118.049</ele>
        <time>2019-03-30T17:44:28Z</time>
      </trkpt>
      <trkpt lat="44.03849" lon="0.8599">
        <ele>98.323</ele>
        <time>2016-09-26T19:01:06Z</time>
      </trkpt>
      <trkpt lat="44.03897" lon="0.85757">
        <ele>81.308</ele>
        <time>2016-09-26T19:01:26Z</time>
      </trkpt>
      <trkpt lat="44.03922" lon="0.85487">
        <ele>69.675</ele>
        <time>2019-03-30T17:45:28Z</time>
      </trkpt>
      <trkpt lat="44.0398" lon="0.85228">
        <ele>67.252</ele>
        <time>2019-03-30T17:45:48Z</time>
      </trkpt>
      <trkpt lat="44.04052" lon="0.85223">
        <ele>66</ele>
      </trkpt>
      <trkpt lat="44.04128" lon="0.85222">
        <ele>65.6</ele>
        <time>2016-09-26T19:02:46Z</time>
      </trkpt>
      <trkpt lat="44.04101" lon="0.85">
        <ele>67.08</ele>
        <time>2019-03-30T17:46:28Z</time>
      </trkpt>
      <trkpt lat="44.04054" lon="0.84904">
        <ele>66.056</ele>
        <time>2019-03-30T17:46:48Z</time>
      </trkpt>
      <trkpt lat="44.04037" lon="0.84773">
        <ele>69.367</ele>
        <time>2019-03-30T17:47:08Z</time>
      </trkpt>
      <trkpt lat="44.04006" lon="0.84642">
        <ele>72.8</ele>
        <time>2019-03-30T17:47:28Z</time>
      </trkpt>
      <trkpt lat="44.03929" lon="0.84587">
        <ele>73.879</ele>
        <time>2016-09-26T19:04:06Z</time>
      </trkpt>
      <trkpt lat="44.03872" lon="0.84443">
        <ele>79.555</ele>
        <time>2016-09-26T19:04:26Z</time>
      </trkpt>
      <trkpt lat="44.0384" lon="0.84281">
        <ele>80.907</ele>
        <time>2019-03-30T17:48:28Z</time>
      </trkpt>
      <trkpt lat="44.0375" lon="0.8413">
        <ele>79.017</ele>
        <time>2016-09-26T19:05:26Z</time>
      </trkpt>
      <trkpt lat="44.03674" lon="0.84087">
        <ele>76.108</ele>
        <time>2016-09-26T19:05:46Z</time>
      </trkpt>
      <trkpt lat="44.03596" lon="0.83971">
        <ele>75.541</ele>
        <time>2016-09-26T19:06:06Z</time>
      </trkpt>
      <trkpt lat="44.03546" lon="0.8386">
        <ele>74.768</ele>
        <time>2016-09-26T19:06:26Z</time>
      </trkpt>
      <trkpt lat="44.03454" lon="0.83721">
        <ele>76.487</ele>
        <time>2019-03-30T17:50:08Z</time>
      </trkpt>
      <trkpt lat="44.03229" lon="0.83537">
        <ele>80.016</ele>
        <time>2019-03-30T17:50:28Z</time>
      </trkpt>
      <trkpt lat="44.0319" lon="0.8343">
        <ele>84.512</ele>
        <time>2016-09-26T19:07:26Z</time>
      </trkpt>
      <trkpt lat="44.03109" lon="0.83256">
        <ele>102.733</ele>
        <time>2019-03-30T17:51:08Z</time>
      </trkpt>
      <trkpt lat="44.03101" lon="0.83088">
        <ele>114.116</ele>
        <time>2019-03-30T17:51:28Z</time>
      </trkpt>
      <trkpt lat="44.03058" lon="0.82786">
        <ele>125.215</ele>
        <time>2019-03-30T17:51:48Z</time>
      </trkpt>
      <trkpt lat="44.03028" lon="0.82649">
        <ele>128.357</ele>
        <time>2016-09-26T19:09:26Z</time>
      </trkpt>
      <trkpt lat="44.03006" lon="0.82546">
        <ele>129.4</ele>
        <time>2016-09-26T19:09:46Z</time>
      </trkpt>
      <trkpt lat="44.02898" lon="0.82349">
        <ele>133.52</ele>
        <time>2016-09-26T19:10:06Z</time>
      </trkpt>
      <trkpt lat="44.02855" lon="0.82216">
        <ele>136.808</ele>
        <time>2016-09-26T19:10:26Z</time>
      </trkpt>
      <trkpt lat="44.02843" lon="0.82092">
        <ele>138.371</ele>
        <time>2016-09-26T19:10:46Z</time>
      </trkpt>
      <trkpt lat="44.02801" lon="0.82064">
        <ele>137.158</ele>
        <time>2016-09-26T19:11:06Z</time>
      </trkpt>
      <trkpt lat="44.02775" lon="0.81991">
        <ele>141.797</ele>
        <time>2016-09-26T19:11:26Z</time>
      </trkpt>
      <trkpt lat="44.0276" lon="0.81868">
        <ele>143.746</ele>
        <time>2016-09-26T19:11:46Z</time>
      </trkpt>
      <trkpt lat="44.02703" lon="0.81722">
        <ele>143.762</ele>
        <time>2016-09-26T19:12:06Z</time>
      </trkpt>
      <trkpt lat="44.02686" lon="0.81656">
        <ele>144.473</ele>
        <time>2016-09-26T19:12:26Z</time>
      </trkpt>
      <trkpt lat="44.02659" lon="0.81634">
        <ele>140.756</ele>
        <time>2016-09-26T19:12:46Z</time>
      </trkpt>
      <trkpt lat="44.02607" lon="0.81547">
        <ele>122.265</ele>
        <time>2016-09-26T19:13:06Z</time>
      </trkpt>
      <trkpt lat="44.02564" lon="0.81495">
        <ele>115.599</ele>
        <time>2016-09-26T19:13:26Z</time>
      </trkpt>
      <trkpt lat="44.02513" lon="0.81394">
        <ele>101.807</ele>
        <time>2016-09-26T19:13:46Z</time>
      </trkpt>
      <trkpt lat="44.02459" lon="0.81247">
        <ele>96.627</ele>
        <time>2019-03-30T17:56:48Z</time>
      </trkpt>
      <trkpt lat="44.0243" lon="0.80902">
        <ele>110.808</ele>
        <time>2019-03-30T17:57:08Z</time>
      </trkpt>
      <trkpt lat="44.02376" lon="0.80617">
        <ele>122.665</ele>
        <time>2019-03-30T17:57:28Z</time>
      </trkpt>
      <trkpt lat="44.02311" lon="0.80411">
        <ele>129.232</ele>
        <time>2019-03-30T17:57:48Z</time>
      </trkpt>
      <trkpt lat="44.02205" lon="0.8014">
        <ele>136.961</ele>
        <time>2019-03-30T17:58:08Z</time>
      </trkpt>
      <trkpt lat="44.02169" lon="0.80024">
        <ele>145.82</ele>
        <time>2019-03-30T17:58:28Z</time>
      </trkpt>
      <trkpt lat="44.02106" lon="0.79881">
        <ele>153.386</ele>
        <time>2019-03-30T17:58:48Z</time>
      </trkpt>
      <trkpt lat="44.02063" lon="0.79683">
        <ele>157.927</ele>
        <time>2019-03-30T17:59:08Z</time>
      </trkpt>
      <trkpt lat="44.02023" lon="0.79591">
        <ele>159.06</ele>
        <time>2019-03-30T17:59:28Z</time>
      </trkpt>
      <trkpt lat="44.01958" lon="0.79526">
        <ele>163.629</ele>
        <time>2019-03-30T17:59:48Z</time>
      </trkpt>
      <trkpt lat="44.01823" lon="0.79434">
        <ele>180.196</ele>
        <time>2019-03-30T18:00:08Z</time>
      </trkpt>
      <trkpt lat="44.01782" lon="0.79373">
        <ele>192.8</ele>
        <time>2016-09-26T19:18:06Z</time>
      </trkpt>
      <trkpt lat="44.01778" lon="0.79368">
        <ele>193.5</ele>
      </trkpt>
      <trkpt lat="44.0176" lon="0.79357">
        <ele>196.7</ele>
      </trkpt>
      <trkpt lat="44.01746" lon="0.79365">
        <ele>198.2</ele>
        <time>2019-03-30T18:00:48Z</time>
      </trkpt>
      <trkpt lat="44.01737" lon="0.79371">
        <ele>199.2</ele>
      </trkpt>
      <trkpt lat="44.01723" lon="0.7926">
        <ele>200.6</ele>
        <time>2019-03-30T18:01:08Z</time>
      </trkpt>
      <trkpt lat="44.01655" lon="0.79048">
        <ele>194.675</ele>
        <time>2019-03-30T18:01:28Z</time>
      </trkpt>
      <trkpt lat="44.01634" lon="0.78881">
        <ele>188.122</ele>
        <time>2019-03-30T18:01:48Z</time>
      </trkpt>
      <trkpt lat="44.01731" lon="0.78417">
        <ele>198.331</ele>
        <time>2019-03-30T18:02:08Z</time>
      </trkpt>
      <trkpt lat="44.01708" lon="0.78207">
        <ele>209.11</ele>
        <time>2019-03-30T18:02:28Z</time>
      </trkpt>
      <trkpt lat="44.0162" lon="0.78142">
        <ele>207.656</ele>
        <time>2019-03-30T18:02:48Z</time>
      </trkpt>
      <trkpt lat="44.01556" lon="0.78139">
        <ele>207.037</ele>
        <time>2016-09-26T19:21:06Z</time>
      </trkpt>
      <trkpt lat="44.01516" lon="0.78107">
        <ele>202.93</ele>
        <time>2016-09-26T19:21:26Z</time>
      </trkpt>
      <trkpt lat="44.01374" lon="0.78004">
        <ele>179.439</ele>
        <time>2016-09-26T19:21:46Z</time>
      </trkpt>
      <trkpt lat="44.01403" lon="0.77935">
        <ele>174.499</ele>
        <time>2016-09-26T19:22:06Z</time>
      </trkpt>
      <trkpt lat="44.01359" lon="0.77916">
        <ele>168.707</ele>
        <time>2016-09-26T19:22:26Z</time>
      </trkpt>
      <trkpt lat="44.0134" lon="0.77847">
        <ele>164.627</ele>
        <time>2016-09-26T19:22:46Z</time>
      </trkpt>
      <trkpt lat="44.01312" lon="0.778">
        <ele>161.708</ele>
        <time>2016-09-26T19:23:06Z</time>
      </trkpt>
      <trkpt lat="44.01053" lon="0.7775">
        <ele>156.855</ele>
        <time>2019-03-30T18:05:28Z</time>
      </trkpt>
      <trkpt lat="44.01005" lon="0.77555">
        <ele>160.692</ele>
        <time>2016-09-26T19:23:46Z</time>
      </trkpt>
      <trkpt lat="44.00915" lon="0.77469">
        <ele>155.161</ele>
        <time>2019-03-30T18:06:08Z</time>
      </trkpt>
      <trkpt lat="44.00817" lon="0.77402">
        <ele>160.89</ele>
        <time>2019-03-30T18:06:28Z</time>
      </trkpt>
      <trkpt lat="44.00632" lon="0.7705">
        <ele>155.626</ele>
        <time>2019-03-30T18:06:48Z</time>
      </trkpt>
      <trkpt lat="44.00487" lon="0.76855">
        <ele>159.787</ele>
        <time>2019-03-30T18:07:08Z</time>
      </trkpt>
      <trkpt lat="44.00433" lon="0.76842">
        <ele>163.83</ele>
        <time>2019-03-30T18:07:28Z</time>
      </trkpt>
      <trkpt lat="44.00364" lon="0.76713">
        <ele>175.199</ele>
        <time>2019-03-30T18:07:48Z</time>
      </trkpt>
      <trkpt lat="44.00355" lon="0.76633">
        <ele>182.521</ele>
        <time>2016-09-26T19:26:06Z</time>
      </trkpt>
      <trkpt lat="44.00157" lon="0.76471">
        <ele>211.041</ele>
        <time>2019-03-30T18:08:28Z</time>
      </trkpt>
      <trkpt lat="44.00114" lon="0.76186">
        <ele>201.605</ele>
        <time>2019-03-30T18:08:48Z</time>
      </trkpt>
      <trkpt lat="44.00095" lon="0.76121">
        <ele>197.4</ele>
      </trkpt>
      <trkpt lat="44.00064" lon="0.76048">
        <ele>193.608</ele>
        <time>2019-03-30T18:09:08Z</time>
      </trkpt>
      <trkpt lat="43.99946" lon="0.75834">
        <ele>195.948</ele>
        <time>2016-09-26T19:27:26Z</time>
      </trkpt>
      <trkpt lat="43.99924" lon="0.75795">
        <ele>199.9</ele>
      </trkpt>
      <trkpt lat="43.99903" lon="0.75736">
        <ele>200.075</ele>
        <time>2016-09-26T19:27:46Z</time>
      </trkpt>
      <trkpt lat="43.99886" lon="0.75741">
        <ele>202.6</ele>
      </trkpt>
      <trkpt lat="43.99862" lon="0.75731">
        <ele>200.094</ele>
        <time>2019-03-30T18:10:08Z</time>
      </trkpt>
      <trkpt lat="43.99797" lon="0.75604">
        <ele>200.013</ele>
        <time>2019-03-30T18:10:28Z</time>
      </trkpt>
      <trkpt lat="43.99732" lon="0.75565">
        <ele>200.039</ele>
        <time>2019-03-30T18:10:48Z</time>
      </trkpt>
      <trkpt lat="43.99449" lon="0.75553">
        <ele>197.59</ele>
        <time>2016-09-26T19:29:06Z</time>
      </trkpt>
      <trkpt lat="43.993" lon="0.75407">
        <ele>188.713</ele>
        <time>2016-09-26T19:29:26Z</time>
      </trkpt>
      <trkpt lat="43.99223" lon="0.75424">
        <ele>183</ele>
      </trkpt>
      <trkpt lat="43.99155" lon="0.75424">
        <ele>181.5</ele>
      </trkpt>
      <trkpt lat="43.99072" lon="0.75387">
        <ele>179.8</ele>
        <time>2016-09-26T19:29:46Z</time>
      </trkpt>
      <trkpt lat="43.9909" lon="0.75334">
        <ele>183.4</ele>
      </trkpt>
      <trkpt lat="43.99113" lon="0.75271">
        <ele>179.1</ele>
      </trkpt>
      <trkpt lat="43.99097" lon="0.75255">
        <ele>175.175</ele>
        <time>2016-09-26T19:30:06Z</time>
      </trkpt>
      <trkpt lat="43.98969" lon="0.75092">
        <ele>167</ele>
        <time>2016-09-26T19:30:26Z</time>
      </trkpt>
      <trkpt lat="43.98936" lon="0.74885">
        <ele>158.6</ele>
        <time>2016-09-26T19:30:46Z</time>
      </trkpt>
      <trkpt lat="43.98879" lon="0.74679">
        <ele>154.208</ele>
        <time>2019-03-30T18:13:08Z</time>
      </trkpt>
      <trkpt lat="43.9885" lon="0.7468">
        <ele>156.393</ele>
        <time>2016-09-26T19:31:26Z</time>
      </trkpt>
      <trkpt lat="43.98761" lon="0.74639">
        <ele>160.01</ele>
        <time>2016-09-26T19:31:46Z</time>
      </trkpt>
      <trkpt lat="43.98665" lon="0.74468">
        <ele>180.619</ele>
        <time>2016-09-26T19:32:06Z</time>
      </trkpt>
      <trkpt lat="43.98651" lon="0.74382">
        <ele>186.828</ele>
        <time>2016-09-26T19:32:26Z</time>
      </trkpt>
      <trkpt lat="43.98509" lon="0.74189">
        <ele>196.875</ele>
        <time>2016-09-26T19:33:06Z</time>
      </trkpt>
      <trkpt lat="43.98464" lon="0.74034">
        <ele>194.738</ele>
        <time>2016-09-26T19:33:26Z</time>
      </trkpt>
      <trkpt lat="43.98398" lon="0.73955">
        <ele>186.687</ele>
        <time>2016-09-26T19:33:46Z</time>
      </trkpt>
      <trkpt lat="43.98182" lon="0.73852">
        <ele>149.188</ele>
        <time>2016-09-26T19:34:06Z</time>
      </trkpt>
      <trkpt lat="43.98186" lon="0.73624">
        <ele>145.224</ele>
        <time>2016-09-26T19:34:26Z</time>
      </trkpt>
      <trkpt lat="43.9827" lon="0.73348">
        <ele>136.626</ele>
        <time>2016-09-26T19:34:46Z</time>
      </trkpt>
      <trkpt lat="43.98304" lon="0.733">
        <ele>138.708</ele>
        <time>2016-09-26T19:35:06Z</time>
      </trkpt>
      <trkpt lat="43.98305" lon="0.73163">
        <ele>136.054</ele>
        <time>2016-09-26T19:35:26Z</time>
      </trkpt>
      <trkpt lat="43.98322" lon="0.7306">
        <ele>134.321</ele>
        <time>2016-09-26T19:35:46Z</time>
      </trkpt>
      <trkpt lat="43.98239" lon="0.72513">
        <ele>100.15</ele>
        <time>2016-09-26T19:36:06Z</time>
      </trkpt>
      <trkpt lat="43.98197" lon="0.72395">
        <ele>96.199</ele>
        <time>2016-09-26T19:36:26Z</time>
      </trkpt>
      <trkpt lat="43.98157" lon="0.72352">
        <ele>95.865</ele>
        <time>2016-09-26T19:36:46Z</time>
      </trkpt>
      <trkpt lat="43.9806" lon="0.72146">
        <ele>97.076</ele>
        <time>2016-09-26T19:37:06Z</time>
      </trkpt>
      <trkpt lat="43.98046" lon="0.71824">
        <ele>101.919</ele>
        <time>2016-09-26T19:37:26Z</time>
      </trkpt>
      <trkpt lat="43.98015" lon="0.71828">
        <ele>103.028</ele>
        <time>2016-09-26T19:37:46Z</time>
      </trkpt>
      <trkpt lat="43.98009" lon="0.71717">
        <ele>104.097</ele>
        <time>2016-09-26T19:38:06Z</time>
      </trkpt>
      <trkpt lat="43.97956" lon="0.71586">
        <ele>105.923</ele>
        <time>2016-09-26T19:38:26Z</time>
      </trkpt>
      <trkpt lat="43.97941" lon="0.71521">
        <ele>106.225</ele>
        <time>2016-09-26T19:38:46Z</time>
      </trkpt>
      <trkpt lat="43.97956" lon="0.71504">
        <ele>106.808</ele>
        <time>2016-09-26T19:39:06Z</time>
      </trkpt>
      <trkpt lat="43.97842" lon="0.71348">
        <ele>106.315</ele>
        <time>2016-09-26T19:39:26Z</time>
      </trkpt>
      <trkpt lat="43.97774" lon="0.71324">
        <ele>103.242</ele>
        <time>2016-09-26T19:39:46Z</time>
      </trkpt>
      <trkpt lat="43.97686" lon="0.71262">
        <ele>108.63</ele>
        <time>2016-09-26T19:40:26Z</time>
      </trkpt>
      <trkpt lat="43.97601" lon="0.71182">
        <ele>110.256</ele>
        <time>2016-09-26T19:40:46Z</time>
      </trkpt>
      <trkpt lat="43.97597" lon="0.71148">
        <ele>110.887</ele>
        <time>2016-09-26T19:41:06Z</time>
      </trkpt>
      <trkpt lat="43.97384" lon="0.70966">
        <ele>116.44</ele>
        <time>2016-09-26T19:41:26Z</time>
      </trkpt>
      <trkpt lat="43.97024" lon="0.70605">
        <ele>127.239</ele>
        <time>2016-09-26T19:41:46Z</time>
      </trkpt>
      <trkpt lat="43.97024" lon="0.70605">
        <ele>127.239</ele>
        <time>2016-09-26T19:41:46Z</time>
      </trkpt>
      <trkpt lat="43.97024" lon="0.70605">
        <ele>127.239</ele>
        <time>2016-09-26T19:41:46Z</time>
      </trkpt>
      <trkpt lat="43.9699" lon="0.7061">
        <ele>126.624</ele>
        <time>2016-09-26T19:42:06Z</time>
      </trkpt>
      <trkpt lat="43.96939" lon="0.70575">
        <ele>124.904</ele>
        <time>2016-09-26T19:42:26Z</time>
      </trkpt>
      <trkpt lat="43.96699" lon="0.70333">
        <ele>116.014</ele>
        <time>2016-09-26T19:42:46Z</time>
      </trkpt>
      <trkpt lat="43.96475" lon="0.70041">
        <ele>122.208</ele>
        <time>2016-09-26T19:43:06Z</time>
      </trkpt>
      <trkpt lat="43.96253" lon="0.69968">
        <ele>112.478</ele>
        <time>2016-09-26T19:43:26Z</time>
      </trkpt>
      <trkpt lat="43.96222" lon="0.69968">
        <ele>110.255</ele>
        <time>2016-09-26T19:43:46Z</time>
      </trkpt>
      <trkpt lat="43.96165" lon="0.69798">
        <ele>110.954</ele>
        <time>2016-09-26T19:44:06Z</time>
      </trkpt>
      <trkpt lat="43.96168" lon="0.69638">
        <ele>114.193</ele>
        <time>2016-09-26T19:44:26Z</time>
      </trkpt>
      <trkpt lat="43.9616" lon="0.69569">
        <ele>114.959</ele>
        <time>2016-09-26T19:44:46Z</time>
      </trkpt>
      <trkpt lat="43.9619" lon="0.69384">
        <ele>123.24</ele>
        <time>2016-09-26T19:45:06Z</time>
      </trkpt>
      <trkpt lat="43.96224" lon="0.69157">
        <ele>127.853</ele>
        <time>2016-09-26T19:45:26Z</time>
      </trkpt>
      <trkpt lat="43.96204" lon="0.69039">
        <ele>124.792</ele>
        <time>2016-09-26T19:45:46Z</time>
      </trkpt>
      <trkpt lat="43.96128" lon="0.68824">
        <ele>119.646</ele>
        <time>2016-09-26T19:46:06Z</time>
      </trkpt>
      <trkpt lat="43.96075" lon="0.68753">
        <ele>119.688</ele>
        <time>2016-09-26T19:46:26Z</time>
      </trkpt>
      <trkpt lat="43.9602" lon="0.68758">
        <ele>117.516</ele>
        <time>2016-09-26T19:46:46Z</time>
      </trkpt>
      <trkpt lat="43.95961" lon="0.68642">
        <ele>119.908</ele>
        <time>2016-09-26T19:47:06Z</time>
      </trkpt>
      <trkpt lat="43.95899" lon="0.6855">
        <ele>120.07</ele>
        <time>2016-09-26T19:47:26Z</time>
      </trkpt>
      <trkpt lat="43.95855" lon="0.68419">
        <ele>122.997</ele>
        <time>2016-09-26T19:47:46Z</time>
      </trkpt>
      <trkpt lat="43.95844" lon="0.68326">
        <ele>124.636</ele>
        <time>2016-09-26T19:48:06Z</time>
      </trkpt>
      <trkpt lat="43.95807" lon="0.68243">
        <ele>124.385</ele>
        <time>2016-09-26T19:48:26Z</time>
      </trkpt>
      <trkpt lat="43.95824" lon="0.68204">
        <ele>127.051</ele>
        <time>2016-09-26T19:48:46Z</time>
      </trkpt>
      <trkpt lat="43.9575" lon="0.68041">
        <ele>127.522</ele>
        <time>2016-09-26T19:49:06Z</time>
      </trkpt>
      <trkpt lat="43.95685" lon="0.68007">
        <ele>127.215</ele>
        <time>2016-09-26T19:49:26Z</time>
      </trkpt>
      <trkpt lat="43.95683" lon="0.67889">
        <ele>128.434</ele>
        <time>2016-09-26T19:49:46Z</time>
      </trkpt>
      <trkpt lat="43.95601" lon="0.67766">
        <ele>130.081</ele>
        <time>2016-09-26T19:50:06Z</time>
      </trkpt>
      <trkpt lat="43.95456" lon="0.67711">
        <ele>133.661</ele>
        <time>2016-09-26T19:50:26Z</time>
      </trkpt>
      <trkpt lat="43.95402" lon="0.67629">
        <ele>136.617</ele>
        <time>2016-09-26T19:50:46Z</time>
      </trkpt>
      <trkpt lat="43.95348" lon="0.67472">
        <ele>140.408</ele>
        <time>2016-09-26T19:51:06Z</time>
      </trkpt>
      <trkpt lat="43.95308" lon="0.67262">
        <ele>141.444</ele>
        <time>2016-09-26T19:51:26Z</time>
      </trkpt>
      <trkpt lat="43.95221" lon="0.67093">
        <ele>150.531</ele>
        <time>2016-09-26T19:51:46Z</time>
      </trkpt>
      <trkpt lat="43.95277" lon="0.6698">
        <ele>154.1</ele>
      </trkpt>
      <trkpt lat="43.95302" lon="0.66963">
        <ele>156</ele>
        <time>2016-09-26T19:52:06Z</time>
      </trkpt>
      <trkpt lat="43.95325" lon="0.66936">
        <ele>158.049</ele>
        <time>2016-09-26T19:52:26Z</time>
      </trkpt>
      <trkpt lat="43.95373" lon="0.66889">
        <ele>156.865</ele>
        <time>2016-09-26T19:52:46Z</time>
      </trkpt>
      <trkpt lat="43.95405" lon="0.66775">
        <ele>158.886</ele>
        <time>2016-09-26T19:53:06Z</time>
      </trkpt>
      <trkpt lat="43.95422" lon="0.66623">
        <ele>160.719</ele>
        <time>2016-09-26T19:53:26Z</time>
      </trkpt>
      <trkpt lat="43.95453" lon="0.66528">
        <ele>159.028</ele>
        <time>2016-09-26T19:53:46Z</time>
      </trkpt>
      <trkpt lat="43.95467" lon="0.66402">
        <ele>163.128</ele>
        <time>2016-09-26T19:54:06Z</time>
      </trkpt>
      <trkpt lat="43.95502" lon="0.66187">
        <ele>169.289</ele>
        <time>2016-09-26T19:54:26Z</time>
      </trkpt>
      <trkpt lat="43.95496" lon="0.6611">
        <ele>171.217</ele>
        <time>2016-09-26T19:54:46Z</time>
      </trkpt>
      <trkpt lat="43.95471" lon="0.66095">
        <ele>172.708</ele>
        <time>2016-09-26T19:55:06Z</time>
      </trkpt>
      <trkpt lat="43.95444" lon="0.65958">
        <ele>175.018</ele>
        <time>2016-09-26T19:55:26Z</time>
      </trkpt>
      <trkpt lat="43.94912" lon="0.65533">
        <ele>210.065</ele>
        <time>2016-09-26T19:55:46Z</time>
      </trkpt>
      <trkpt lat="43.94878" lon="0.65535">
        <ele>210.074</ele>
        <time>2016-09-26T19:56:06Z</time>
      </trkpt>
      <trkpt lat="43.94833" lon="0.65569">
        <ele>210.073</ele>
        <time>2016-09-26T19:56:26Z</time>
      </trkpt>
      <trkpt lat="43.94614" lon="0.65458">
        <ele>210.949</ele>
        <time>2016-09-26T19:56:46Z</time>
      </trkpt>
      <trkpt lat="43.94529" lon="0.65419">
        <ele>211.18</ele>
        <time>2016-09-26T19:57:06Z</time>
      </trkpt>
      <trkpt lat="43.94353" lon="0.65277">
        <ele>202.123</ele>
        <time>2016-09-26T19:57:26Z</time>
      </trkpt>
      <trkpt lat="43.94222" lon="0.65088">
        <ele>182.942</ele>
        <time>2016-09-26T19:57:46Z</time>
      </trkpt>
      <trkpt lat="43.94118" lon="0.65061">
        <ele>173.584</ele>
        <time>2016-09-26T19:58:06Z</time>
      </trkpt>
      <trkpt lat="43.94064" lon="0.65022">
        <ele>167.907</ele>
        <time>2016-09-26T19:58:26Z</time>
      </trkpt>
      <trkpt lat="43.94127" lon="0.64958">
        <ele>173.217</ele>
        <time>2016-09-26T19:58:46Z</time>
      </trkpt>
      <trkpt lat="43.94175" lon="0.64928">
        <ele>176.708</ele>
        <time>2016-09-26T19:59:06Z</time>
      </trkpt>
      <trkpt lat="43.94229" lon="0.64887">
        <ele>178.734</ele>
        <time>2016-09-26T19:59:26Z</time>
      </trkpt>
      <trkpt lat="43.94401" lon="0.64837">
        <ele>194.451</ele>
        <time>2016-09-26T19:59:46Z</time>
      </trkpt>
      <trkpt lat="43.94435" lon="0.64728">
        <ele>196.78</ele>
        <time>2016-09-26T20:00:06Z</time>
      </trkpt>
      <trkpt lat="43.94467" lon="0.64571">
        <ele>197.639</ele>
        <time>2016-09-26T20:00:26Z</time>
      </trkpt>
      <trkpt lat="43.94416" lon="0.64475">
        <ele>190.975</ele>
        <time>2016-09-26T20:00:46Z</time>
      </trkpt>
      <trkpt lat="43.94401" lon="0.64408">
        <ele>186.436</ele>
        <time>2016-09-26T20:01:06Z</time>
      </trkpt>
      <trkpt lat="43.94402" lon="0.64365">
        <ele>184.749</ele>
        <time>2016-09-26T20:01:26Z</time>
      </trkpt>
      <trkpt lat="43.9433" lon="0.6422">
        <ele>174.9</ele>
        <time>2016-09-26T20:01:46Z</time>
      </trkpt>
      <trkpt lat="43.94256" lon="0.64119">
        <ele>162.752</ele>
        <time>2016-09-26T20:02:06Z</time>
      </trkpt>
      <trkpt lat="43.94219" lon="0.63951">
        <ele>160.653</ele>
        <time>2016-09-26T20:02:26Z</time>
      </trkpt>
      <trkpt lat="43.94226" lon="0.63857">
        <ele>164.708</ele>
        <time>2016-09-26T20:02:46Z</time>
      </trkpt>
      <trkpt lat="43.94185" lon="0.63717">
        <ele>154.708</ele>
        <time>2016-09-26T20:03:06Z</time>
      </trkpt>
      <trkpt lat="43.94198" lon="0.63569">
        <ele>155.171</ele>
        <time>2016-09-26T20:03:26Z</time>
      </trkpt>
      <trkpt lat="43.94186" lon="0.63531">
        <ele>155.078</ele>
        <time>2016-09-26T20:03:46Z</time>
      </trkpt>
      <trkpt lat="43.94161" lon="0.63516">
        <ele>151.4</ele>
      </trkpt>
      <trkpt lat="43.94149" lon="0.63505">
        <ele>150.8</ele>
      </trkpt>
      <trkpt lat="43.94146" lon="0.63496">
        <ele>151.1</ele>
      </trkpt>
      <trkpt lat="43.94129" lon="0.63504">
        <ele>146.8</ele>
      </trkpt>
      <trkpt lat="43.94096" lon="0.63487">
        <ele>141.9</ele>
        <time>2016-09-26T20:04:06Z</time>
      </trkpt>
      <trkpt lat="43.93993" lon="0.63365">
        <ele>125.2</ele>
      </trkpt>
      <trkpt lat="43.93978" lon="0.63337">
        <ele>123.7</ele>
        <time>2016-09-26T20:04:26Z</time>
      </trkpt>
      <trkpt lat="43.93913" lon="0.63232">
        <ele>122.552</ele>
        <time>2016-09-26T20:04:46Z</time>
      </trkpt>
      <trkpt lat="43.93877" lon="0.63194">
        <ele>127.7</ele>
      </trkpt>
      <trkpt lat="43.93843" lon="0.63155">
        <ele>127.5</ele>
        <time>2016-09-26T20:05:06Z</time>
      </trkpt>
      <trkpt lat="43.93808" lon="0.63119">
        <ele>125.976</ele>
        <time>2016-09-26T20:05:26Z</time>
      </trkpt>
      <trkpt lat="43.93758" lon="0.63075">
        <ele>123.6</ele>
      </trkpt>
      <trkpt lat="43.93695" lon="0.63057">
        <ele>127</ele>
        <time>2016-09-26T20:05:46Z</time>
      </trkpt>
      <trkpt lat="43.93689" lon="0.63038">
        <ele>127.4</ele>
      </trkpt>
      <trkpt lat="43.93695" lon="0.63016">
        <ele>126.3</ele>
      </trkpt>
      <trkpt lat="43.93696" lon="0.62959">
        <ele>129.7</ele>
      </trkpt>
      <trkpt lat="43.93682" lon="0.62903">
        <ele>136.6</ele>
      </trkpt>
      <trkpt lat="43.93678" lon="0.6281">
        <ele>143.826</ele>
        <time>2016-09-26T20:06:06Z</time>
      </trkpt>
      <trkpt lat="43.93667" lon="0.62743">
        <ele>150.247</ele>
        <time>2016-09-26T20:06:26Z</time>
      </trkpt>
      <trkpt lat="43.93673" lon="0.62629">
        <ele>154.311</ele>
        <time>2016-09-26T20:06:46Z</time>
      </trkpt>
      <trkpt lat="43.93647" lon="0.62526">
        <ele>155.108</ele>
        <time>2016-09-26T20:07:06Z</time>
      </trkpt>
      <trkpt lat="43.93604" lon="0.62494">
        <ele>158.978</ele>
        <time>2016-09-26T20:07:26Z</time>
      </trkpt>
      <trkpt lat="43.93559" lon="0.62362">
        <ele>158.164</ele>
        <time>2016-09-26T20:08:06Z</time>
      </trkpt>
      <trkpt lat="43.9352" lon="0.62375">
        <ele>166.673</ele>
        <time>2016-09-26T20:08:26Z</time>
      </trkpt>
      <trkpt lat="43.93525" lon="0.62281">
        <ele>165.539</ele>
        <time>2016-09-26T20:08:46Z</time>
      </trkpt>
      <trkpt lat="43.93451" lon="0.62313">
        <ele>176.98</ele>
        <time>2016-09-26T20:09:06Z</time>
      </trkpt>
      <trkpt lat="43.93407" lon="0.62321">
        <ele>179.523</ele>
        <time>2021-01-03T11:39:20Z</time>
      </trkpt>
      <trkpt lat="43.9341" lon="0.62229">
        <ele>179.112</ele>
        <time>2021-01-03T11:39:40Z</time>
      </trkpt>
      <trkpt lat="43.93422" lon="0.62151">
        <ele>178.835</ele>
        <time>2021-01-03T11:40:00Z</time>
      </trkpt>
      <trkpt lat="43.93551" lon="0.61692">
        <ele>165.986</ele>
        <time>2021-01-03T11:40:20Z</time>
      </trkpt>
      <trkpt lat="43.93596" lon="0.61658">
        <ele>160.714</ele>
        <time>2021-01-03T11:40:40Z</time>
      </trkpt>
      <trkpt lat="43.93615" lon="0.61588">
        <ele>157.408</ele>
        <time>2021-01-03T11:41:00Z</time>
      </trkpt>
      <trkpt lat="43.93632" lon="0.61577">
        <ele>153.539</ele>
        <time>2021-01-03T11:41:20Z</time>
      </trkpt>
      <trkpt lat="43.9362" lon="0.61531">
        <ele>148.616</ele>
        <time>2021-01-03T11:41:40Z</time>
      </trkpt>
      <trkpt lat="43.93651" lon="0.61545">
        <ele>146.465</ele>
        <time>2021-01-03T11:42:00Z</time>
      </trkpt>
      <trkpt lat="43.93639" lon="0.61514">
        <ele>144.154</ele>
        <time>2021-01-03T11:42:20Z</time>
      </trkpt>
      <trkpt lat="43.93615" lon="0.6149">
        <ele>142.44</ele>
        <time>2021-01-03T11:42:40Z</time>
      </trkpt>
      <trkpt lat="43.93628" lon="0.61482">
        <ele>140.611</ele>
        <time>2021-01-03T11:43:00Z</time>
      </trkpt>
      <trkpt lat="43.9367" lon="0.61483">
        <ele>138.384</ele>
        <time>2021-01-03T11:43:20Z</time>
      </trkpt>
      <trkpt lat="43.93689" lon="0.61467">
        <ele>133.933</ele>
        <time>2021-01-03T11:43:40Z</time>
      </trkpt>
      <trkpt lat="43.93663" lon="0.61424">
        <ele>124.713</ele>
        <time>2021-01-03T11:44:00Z</time>
      </trkpt>
      <trkpt lat="43.93615" lon="0.61365">
        <ele>116.443</ele>
        <time>2021-01-03T11:44:20Z</time>
      </trkpt>
      <trkpt lat="43.93599" lon="0.61309">
        <ele>105.107</ele>
        <time>2021-01-03T11:44:40Z</time>
      </trkpt>
      <trkpt lat="43.93543" lon="0.61249">
        <ele>95.208</ele>
        <time>2021-01-03T11:45:00Z</time>
      </trkpt>
      <trkpt lat="43.93465" lon="0.61264">
        <ele>95.667</ele>
        <time>2021-01-03T11:45:20Z</time>
      </trkpt>
      <trkpt lat="43.93386" lon="0.61296">
        <ele>93.234</ele>
        <time>2021-01-03T11:45:40Z</time>
      </trkpt>
      <trkpt lat="43.93369" lon="0.61293">
        <ele>90.393</ele>
        <time>2021-01-03T11:46:00Z</time>
      </trkpt>
      <trkpt lat="43.93403" lon="0.61168">
        <ele>77.032</ele>
        <time>2021-01-03T11:46:20Z</time>
      </trkpt>
      <trkpt lat="43.93437" lon="0.60904">
        <ele>76.698</ele>
        <time>2021-01-03T11:46:40Z</time>
      </trkpt>
      <trkpt lat="43.93451" lon="0.60945">
        <ele>76.089</ele>
        <time>2021-01-03T11:47:00Z</time>
      </trkpt>
      <trkpt lat="43.93459" lon="0.60991">
        <ele>76.012</ele>
        <time>2021-01-03T11:47:20Z</time>
      </trkpt>
      <trkpt lat="43.93494" lon="0.60984">
        <ele>76.091</ele>
        <time>2021-01-03T11:47:40Z</time>
      </trkpt>
      <trkpt lat="43.93543" lon="0.60991">
        <ele>76.422</ele>
        <time>2016-09-26T20:16:26Z</time>
      </trkpt>
      <trkpt lat="43.93594" lon="0.60933">
        <ele>76.062</ele>
        <time>2016-09-26T20:16:46Z</time>
      </trkpt>
      <trkpt lat="43.93605" lon="0.60877">
        <ele>76.008</ele>
        <time>2016-09-26T20:17:06Z</time>
      </trkpt>
      <trkpt lat="43.93648" lon="0.60785">
        <ele>77.008</ele>
        <time>2016-09-26T20:17:26Z</time>
      </trkpt>
      <trkpt lat="43.93738" lon="0.6067">
        <ele>76.6</ele>
        <time>2016-09-26T20:17:46Z</time>
        <extensions>
          <visugpx:TrkExtension xmlns:visugpx="https://www.visugpx.com/editgpx/">
            <visugpx:node>1</visugpx:node>
            </visugpx:TrkExtension>
        </extensions>
      </trkpt>
    </trkseg>
  </trk>
</gpx>